sensor_id;sensor_type;location;lat;lon;timestamp;pressure;altitude;pressure_sealevel;temperature;humidity
37132;BME280;23035;50.032;21.978;2024-03-02T00:02:15;64489.97;;;-6.50;100.00
37132;BME280;23035;50.032;21.978;2024-03-02T00:07:19;64486.69;;;-6.56;100.00
37132;BME280;23035;50.032;21.978;2024-03-02T00:12:23;64443.38;;;-6.98;100.00
37132;BME280;23035;50.032;21.978;2024-03-02T00:17:30;64460.38;;;-6.79;100.00
37132;BME280;23035;50.032;21.978;2024-03-02T00:22:35;64420.00;;;-7.23;100.00
37132;BME280;23035;50.032;21.978;2024-03-02T00:27:40;64463.31;;;-6.81;100.00
37132;BME280;23035;50.032;21.978;2024-03-02T00:32:46;64384.66;;;-7.57;100.00
37132;BME280;23035;50.032;21.978;2024-03-02T00:37:50;64347.16;;;-7.93;100.00
37132;BME280;23035;50.032;21.978;2024-03-02T00:42:54;64354.03;;;-7.86;100.00
37132;BME280;23035;50.032;21.978;2024-03-02T00:47:59;64349.38;;;-7.88;100.00
37132;BME280;23035;50.032;21.978;2024-03-02T00:53:03;64377.34;;;-7.61;100.00
37132;BME280;23035;50.032;21.978;2024-03-02T00:58:08;64391.50;;;-7.50;100.00
37132;BME280;23035;50.032;21.978;2024-03-02T01:03:13;64449.59;;;-6.94;100.00
37132;BME280;23035;50.032;21.978;2024-03-02T01:08:17;64462.69;;;-6.84;100.00
37132;BME280;23035;50.032;21.978;2024-03-02T01:13:22;64388.56;;;-7.48;100.00
37132;BME280;23035;50.032;21.978;2024-03-02T01:18:28;64374.72;;;-7.64;100.00
37132;BME280;23035;50.032;21.978;2024-03-02T01:23:33;64409.97;;;-7.32;100.00
37132;BME280;23035;50.032;21.978;2024-03-02T01:28:37;64476.00;;;-6.69;100.00
37132;BME280;23035;50.032;21.978;2024-03-02T01:33:43;64401.00;;;-7.41;100.00
37132;BME280;23035;50.032;21.978;2024-03-02T01:38:47;64403.09;;;-7.39;100.00
37132;BME280;23035;50.032;21.978;2024-03-02T01:43:51;64421.69;;;-7.18;100.00
37132;BME280;23035;50.032;21.978;2024-03-02T01:48:56;64417.91;;;-7.25;100.00
37132;BME280;23035;50.032;21.978;2024-03-02T01:54:01;64354.56;;;-7.86;100.00
37132;BME280;23035;50.032;21.978;2024-03-02T01:59:05;64336.72;;;-8.00;100.00
37132;BME280;23035;50.032;21.978;2024-03-02T02:04:10;64407.44;;;-7.32;100.00
37132;BME280;23035;50.032;21.978;2024-03-02T02:09:16;64397.94;;;-7.41;100.00
37132;BME280;23035;50.032;21.978;2024-03-02T02:14:21;64381.56;;;-7.57;100.00
37132;BME280;23035;50.032;21.978;2024-03-02T02:19:26;64340.72;;;-8.01;100.00
37132;BME280;23035;50.032;21.978;2024-03-02T02:24:32;64369.31;;;-7.71;100.00
37132;BME280;23035;50.032;21.978;2024-03-02T02:29:36;64385.28;;;-7.54;100.00
37132;BME280;23035;50.032;21.978;2024-03-02T02:34:40;64381.03;;;-7.58;100.00
37132;BME280;23035;50.032;21.978;2024-03-02T02:39:46;64403.75;;;-7.36;100.00
37132;BME280;23035;50.032;21.978;2024-03-02T02:44:50;64446.00;;;-6.95;100.00
37132;BME280;23035;50.032;21.978;2024-03-02T02:49:54;64371.03;;;-7.67;100.00
37132;BME280;23035;50.032;21.978;2024-03-02T02:55:00;64390.56;;;-7.48;100.00
37132;BME280;23035;50.032;21.978;2024-03-02T03:00:07;64352.19;;;-7.93;100.00
37132;BME280;23035;50.032;21.978;2024-03-02T03:05:17;64333.03;;;-8.04;100.00
37132;BME280;23035;50.032;21.978;2024-03-02T03:10:23;64336.19;;;-8.01;100.00
37132;BME280;23035;50.032;21.978;2024-03-02T03:15:29;64357.19;;;-7.83;100.00
37132;BME280;23035;50.032;21.978;2024-03-02T03:20:33;64323.94;;;-8.15;100.00
37132;BME280;23035;50.032;21.978;2024-03-02T03:25:39;64390.56;;;-7.48;100.00
37132;BME280;23035;50.032;21.978;2024-03-02T03:30:43;64380.78;;;-7.53;100.00
37132;BME280;23035;50.032;21.978;2024-03-02T03:35:47;64371.69;;;-7.64;100.00
37132;BME280;23035;50.032;21.978;2024-03-02T03:40:52;64384.50;;;-7.59;100.00
37132;BME280;23035;50.032;21.978;2024-03-02T03:45:56;64351.78;;;-7.91;100.00
37132;BME280;23035;50.032;21.978;2024-03-02T03:51:00;64341.47;;;-7.96;100.00
37132;BME280;23035;50.032;21.978;2024-03-02T03:56:06;64396.78;;;-7.45;100.00
37132;BME280;23035;50.032;21.978;2024-03-02T04:01:10;64434.63;;;-7.01;100.00
37132;BME280;23035;50.032;21.978;2024-03-02T04:06:14;64368.28;;;-7.72;100.00
37132;BME280;23035;50.032;21.978;2024-03-02T04:11:21;64457.00;;;-6.87;100.00
37132;BME280;23035;50.032;21.978;2024-03-02T04:16:25;64389.78;;;-7.54;100.00
37132;BME280;23035;50.032;21.978;2024-03-02T04:21:30;64343.06;;;-7.94;100.00
37132;BME280;23035;50.032;21.978;2024-03-02T04:26:35;64388.44;;;-7.51;100.00
37132;BME280;23035;50.032;21.978;2024-03-02T04:31:39;64425.81;;;-7.17;100.00
37132;BME280;23035;50.032;21.978;2024-03-02T04:36:43;64428.69;;;-7.09;100.00
37132;BME280;23035;50.032;21.978;2024-03-02T04:41:49;64365.09;;;-7.75;100.00
37132;BME280;23035;50.032;21.978;2024-03-02T04:46:53;64341.22;;;-8.01;100.00
37132;BME280;23035;50.032;21.978;2024-03-02T04:51:57;64406.41;;;-7.33;100.00
37132;BME280;23035;50.032;21.978;2024-03-02T04:57:03;64369.03;;;-7.67;100.00
37132;BME280;23035;50.032;21.978;2024-03-02T05:02:07;64301.91;;;-8.34;100.00
37132;BME280;23035;50.032;21.978;2024-03-02T05:07:11;64373.66;;;-7.65;100.00
37132;BME280;23035;50.032;21.978;2024-03-02T05:12:17;64322.47;;;-8.14;100.00
37132;BME280;23035;50.032;21.978;2024-03-02T05:17:43;64346.75;;;-7.91;100.00
37132;BME280;23035;50.032;21.978;2024-03-02T05:22:47;64384.66;;;-7.57;100.00
37132;BME280;23035;50.032;21.978;2024-03-02T05:27:53;64393.22;;;-7.46;100.00
37132;BME280;23035;50.032;21.978;2024-03-02T05:32:58;64427.63;;;-7.10;100.00
37132;BME280;23035;50.032;21.978;2024-03-02T05:38:03;64504.13;;;-6.39;100.00
37132;BME280;23035;50.032;21.978;2024-03-02T05:43:08;64433.72;;;-7.09;100.00
37132;BME280;23035;50.032;21.978;2024-03-02T05:48:13;64412.59;;;-7.30;100.00
37132;BME280;23035;50.032;21.978;2024-03-02T05:53:17;64410.09;;;-7.30;100.00
37132;BME280;23035;50.032;21.978;2024-03-02T05:58:22;64416.97;;;-7.23;100.00
37132;BME280;23035;50.032;21.978;2024-03-02T06:03:40;64404.28;;;-7.35;100.00
37132;BME280;23035;50.032;21.978;2024-03-02T06:08:44;64453.28;;;-6.90;100.00
37132;BME280;23035;50.032;21.978;2024-03-02T06:13:49;64420.41;;;-7.25;100.00
37132;BME280;23035;50.032;21.978;2024-03-02T06:18:54;64414.72;;;-7.28;100.00
37132;BME280;23035;50.032;21.978;2024-03-02T06:23:58;64410.50;;;-7.32;100.00
37132;BME280;23035;50.032;21.978;2024-03-02T06:29:05;64442.81;;;-6.98;100.00
37132;BME280;23035;50.032;21.978;2024-03-02T06:34:10;64435.44;;;-7.05;100.00
37132;BME280;23035;50.032;21.978;2024-03-02T06:39:14;64441.13;;;-7.02;100.00
37132;BME280;23035;50.032;21.978;2024-03-02T06:44:21;64473.06;;;-6.67;100.00
37132;BME280;23035;50.032;21.978;2024-03-02T06:49:26;64458.41;;;-6.78;100.00
37132;BME280;23035;50.032;21.978;2024-03-02T06:54:30;64521.44;;;-6.25;100.00
37132;BME280;23035;50.032;21.978;2024-03-02T06:59:36;64464.50;;;-6.77;100.00
37132;BME280;23035;50.032;21.978;2024-03-02T07:04:40;64455.94;;;-6.88;100.00
37132;BME280;23035;50.032;21.978;2024-03-02T07:09:45;64476.13;;;-6.66;100.00
37132;BME280;23035;50.032;21.978;2024-03-02T07:14:53;64460.38;;;-6.79;100.00
37132;BME280;23035;50.032;21.978;2024-03-02T07:20:11;64443.50;;;-6.95;100.00
37132;BME280;23035;50.032;21.978;2024-03-02T07:25:15;64452.75;;;-6.91;100.00
37132;BME280;23035;50.032;21.978;2024-03-02T07:30:23;64428.56;;;-7.12;100.00
37132;BME280;23035;50.032;21.978;2024-03-02T07:35:29;64492.91;;;-6.52;100.00
37132;BME280;23035;50.032;21.978;2024-03-02T07:40:34;64521.44;;;-6.25;100.00
37132;BME280;23035;50.032;21.978;2024-03-02T07:45:40;64497.78;;;-6.45;100.00
37132;BME280;23035;50.032;21.978;2024-03-02T07:50:44;64476.75;;;-6.63;100.00
37132;BME280;23035;50.032;21.978;2024-03-02T07:55:48;64466.50;;;-6.78;100.00
37132;BME280;23035;50.032;21.978;2024-03-02T08:00:54;64440.72;;;-7.00;100.00
37132;BME280;23035;50.032;21.978;2024-03-02T08:05:58;64498.19;;;-6.47;100.00
37132;BME280;23035;50.032;21.978;2024-03-02T08:11:03;64418.97;;;-7.24;100.00
37132;BME280;23035;50.032;21.978;2024-03-02T08:16:11;64428.03;;;-7.12;100.00
37132;BME280;23035;50.032;21.978;2024-03-02T08:21:16;64514.81;;;-6.26;100.00
37132;BME280;23035;50.032;21.978;2024-03-02T08:26:22;64583.94;;;-5.62;100.00
37132;BME280;23035;50.032;21.978;2024-03-02T08:31:28;64476.66;;;-6.66;100.00
37132;BME280;23035;50.032;21.978;2024-03-02T08:36:32;64469.25;;;-6.73;100.00
37132;BME280;23035;50.032;21.978;2024-03-02T08:41:42;64594.41;;;-5.55;100.00
37132;BME280;23035;50.032;21.978;2024-03-02T08:47:08;64615.66;;;-5.32;100.00
37132;BME280;23035;50.032;21.978;2024-03-02T08:53:27;64549.59;;;-5.95;100.00
37132;BME280;23035;50.032;21.978;2024-03-02T08:58:40;64568.72;;;-5.74;100.00
37132;BME280;23035;50.032;21.978;2024-03-02T09:03:50;64620.00;;;-5.25;100.00
37132;BME280;23035;50.032;21.978;2024-03-02T09:08:57;64569.66;;;-5.76;100.00
37132;BME280;23035;50.032;21.978;2024-03-02T09:14:03;64537.72;;;-6.12;100.00
37132;BME280;23035;50.032;21.978;2024-03-02T09:19:18;64477.28;;;-6.62;100.00
37132;BME280;23035;50.032;21.978;2024-03-02T09:24:23;64550.94;;;-5.99;100.00
37132;BME280;23035;50.032;21.978;2024-03-02T09:29:28;64551.06;;;-5.96;100.00
37132;BME280;23035;50.032;21.978;2024-03-02T09:34:34;64614.22;;;-5.31;100.00
37132;BME280;23035;50.032;21.978;2024-03-02T09:39:39;64639.59;;;-5.06;100.00
37132;BME280;23035;50.032;21.978;2024-03-02T09:44:49;64527.91;;;-6.16;100.00
37132;BME280;23035;50.032;21.978;2024-03-02T09:49:58;64486.16;;;-6.56;100.00
37132;BME280;23035;50.032;21.978;2024-03-02T09:55:03;64558.44;;;-5.89;100.00
37132;BME280;23035;50.032;21.978;2024-03-02T10:00:09;64545.75;;;-6.01;100.00
37132;BME280;23035;50.032;21.978;2024-03-02T10:05:26;64503.06;;;-6.40;100.00
37132;BME280;23035;50.032;21.978;2024-03-02T10:10:36;64520.41;;;-6.26;100.00
37132;BME280;23035;50.032;21.978;2024-03-02T10:15:43;64527.81;;;-6.19;100.00
37132;BME280;23035;50.032;21.978;2024-03-02T10:20:49;64593.88;;;-5.55;100.00
37132;BME280;23035;50.032;21.978;2024-03-02T10:25:54;64556.97;;;-5.88;100.00
37132;BME280;23035;50.032;21.978;2024-03-02T10:30:59;64537.97;;;-6.07;100.00
37132;BME280;23035;50.032;21.978;2024-03-02T10:36:27;64531.38;;;-6.18;100.00
37132;BME280;23035;50.032;21.978;2024-03-02T10:41:58;64539.66;;;-6.02;100.00
37132;BME280;23035;50.032;21.978;2024-03-02T10:47:04;64667.00;;;-4.82;100.00
37132;BME280;23035;50.032;21.978;2024-03-02T10:52:10;64599.69;;;-5.50;100.00
37132;BME280;23035;50.032;21.978;2024-03-02T10:57:16;64682.34;;;-4.68;100.00
37132;BME280;23035;50.032;21.978;2024-03-02T11:02:21;64688.19;;;-4.62;100.00
37132;BME280;23035;50.032;21.978;2024-03-02T11:07:29;64665.94;;;-4.83;100.00
37132;BME280;23035;50.032;21.978;2024-03-02T11:12:38;64660.41;;;-4.94;100.00
37132;BME280;23035;50.032;21.978;2024-03-02T11:17:43;64782.56;;;-3.69;100.00
37132;BME280;23035;50.032;21.978;2024-03-02T11:22:50;64717.81;;;-4.34;100.00
37132;BME280;23035;50.032;21.978;2024-03-02T11:28:05;64733.72;;;-4.18;100.00
37132;BME280;23035;50.032;21.978;2024-03-02T11:33:10;64802.16;;;-3.50;100.00
37132;BME280;23035;50.032;21.978;2024-03-02T11:38:17;64741.53;;;-4.13;100.00
37132;BME280;23035;50.032;21.978;2024-03-02T11:43:25;64626.25;;;-5.22;100.00
37132;BME280;23035;50.032;21.978;2024-03-02T11:48:31;64674.81;;;-4.77;100.00
37132;BME280;23035;50.032;21.978;2024-03-02T11:53:38;64809.44;;;-3.46;100.00
37132;BME280;23035;50.032;21.978;2024-03-02T11:58:43;64756.47;;;-3.96;100.00
37132;BME280;23035;50.032;21.978;2024-03-02T12:03:50;64814.44;;;-3.36;100.00
37132;BME280;23035;50.032;21.978;2024-03-02T12:08:57;64766.53;;;-3.87;100.00
37132;BME280;23035;50.032;21.978;2024-03-02T12:14:01;64786.25;;;-3.65;100.00
37132;BME280;23035;50.032;21.978;2024-03-02T12:19:07;64768.66;;;-3.85;100.00
37132;BME280;23035;50.032;21.978;2024-03-02T12:24:30;64819.13;;;-3.34;100.00
37132;BME280;23035;50.032;21.978;2024-03-02T12:29:34;64815.72;;;-3.42;100.00
37132;BME280;23035;50.032;21.978;2024-03-02T12:34:38;64760.59;;;-3.95;100.00
37132;BME280;23035;50.032;21.978;2024-03-02T12:39:46;64764.84;;;-3.91;100.00
37132;BME280;23035;50.032;21.978;2024-03-02T12:44:52;64804.91;;;-3.45;100.00
37132;BME280;23035;50.032;21.978;2024-03-02T12:50:10;64804.06;;;-3.53;100.00
37132;BME280;23035;50.032;21.978;2024-03-02T12:55:21;64867.22;;;-2.90;100.00
37132;BME280;23035;50.032;21.978;2024-03-02T13:00:26;64825.47;;;-3.28;100.00
37132;BME280;23035;50.032;21.978;2024-03-02T13:05:31;64801.91;;;-3.55;100.00
37132;BME280;23035;50.032;21.978;2024-03-02T13:10:37;64892.69;;;-2.66;100.00
37132;BME280;23035;50.032;21.978;2024-03-02T13:15:42;64848.69;;;-3.08;100.00
37132;BME280;23035;50.032;21.978;2024-03-02T13:20:46;64779.38;;;-3.72;100.00
37132;BME280;23035;50.032;21.978;2024-03-02T13:25:52;64712.63;;;-4.36;100.00
37132;BME280;23035;50.032;21.978;2024-03-02T13:30:56;64743.66;;;-4.11;100.00
37132;BME280;23035;50.032;21.978;2024-03-02T13:36:01;64675.47;;;-4.74;100.00
37132;BME280;23035;50.032;21.978;2024-03-02T13:41:07;64673.34;;;-4.76;100.00
37132;BME280;23035;50.032;21.978;2024-03-02T13:46:11;64636.72;;;-5.14;100.00
37132;BME280;23035;50.032;21.978;2024-03-02T13:51:16;64671.66;;;-4.80;100.00
37132;BME280;23035;50.032;21.978;2024-03-02T13:56:21;64663.53;;;-4.81;100.00
37132;BME280;23035;50.032;21.978;2024-03-02T14:01:26;64649.66;;;-4.97;100.00
37132;BME280;23035;50.032;21.978;2024-03-02T14:06:30;64689.63;;;-4.63;100.00
37132;BME280;23035;50.032;21.978;2024-03-02T14:11:36;64638.81;;;-5.12;100.00
37132;BME280;23035;50.032;21.978;2024-03-02T14:16:40;64635.66;;;-5.15;100.00
37132;BME280;23035;50.032;21.978;2024-03-02T14:21:45;64664.34;;;-4.85;100.00
37132;BME280;23035;50.032;21.978;2024-03-02T14:26:51;64674.94;;;-4.75;100.00
37132;BME280;23035;50.032;21.978;2024-03-02T14:32:05;64704.16;;;-4.44;100.00
37132;BME280;23035;50.032;21.978;2024-03-02T14:37:10;64681.81;;;-4.68;100.00
37132;BME280;23035;50.032;21.978;2024-03-02T14:42:15;64692.81;;;-4.60;100.00
37132;BME280;23035;50.032;21.978;2024-03-02T14:47:19;64623.31;;;-5.20;100.00
37132;BME280;23035;50.032;21.978;2024-03-02T14:52:24;64653.75;;;-4.95;100.00
37132;BME280;23035;50.032;21.978;2024-03-02T14:57:30;64729.47;;;-4.22;100.00
37132;BME280;23035;50.032;21.978;2024-03-02T15:02:46;64665.94;;;-4.83;100.00
37132;BME280;23035;50.032;21.978;2024-03-02T15:07:51;64715.81;;;-4.33;100.00
37132;BME280;23035;50.032;21.978;2024-03-02T15:12:57;64611.44;;;-5.36;100.00
37132;BME280;23035;50.032;21.978;2024-03-02T15:18:02;64698.75;;;-4.52;100.00
37132;BME280;23035;50.032;21.978;2024-03-02T15:23:09;64625.84;;;-5.20;100.00
37132;BME280;23035;50.032;21.978;2024-03-02T15:28:18;64667.13;;;-4.80;100.00
37132;BME280;23035;50.032;21.978;2024-03-02T15:33:25;64596.75;;;-5.47;100.00
37132;BME280;23035;50.032;21.978;2024-03-02T15:38:34;64688.72;;;-4.62;100.00
37132;BME280;23035;50.032;21.978;2024-03-02T15:43:45;64670.06;;;-4.82;100.00
37132;BME280;23035;50.032;21.978;2024-03-02T15:48:50;64645.28;;;-5.03;100.00
37132;BME280;23035;50.032;21.978;2024-03-02T15:53:54;64652.19;;;-4.97;100.00
37132;BME280;23035;50.032;21.978;2024-03-02T15:59:00;64662.34;;;-4.84;100.00
37132;BME280;23035;50.032;21.978;2024-03-02T16:04:06;64593.03;;;-5.51;100.00
37132;BME280;23035;50.032;21.978;2024-03-02T16:09:11;64578.13;;;-5.68;100.00
37132;BME280;23035;50.032;21.978;2024-03-02T16:14:16;64602.34;;;-5.47;100.00
37132;BME280;23035;50.032;21.978;2024-03-02T16:19:21;64645.81;;;-5.03;100.00
37132;BME280;23035;50.032;21.978;2024-03-02T16:24:34;64738.88;;;-4.16;100.00
37132;BME280;23035;50.032;21.978;2024-03-02T16:29:40;64686.19;;;-4.62;100.00
37132;BME280;23035;50.032;21.978;2024-03-02T16:34:44;64676.00;;;-4.74;100.00
37132;BME280;23035;50.032;21.978;2024-03-02T16:39:49;64664.47;;;-4.82;100.00
37132;BME280;23035;50.032;21.978;2024-03-02T16:44:58;64610.91;;;-5.36;100.00
37132;BME280;23035;50.032;21.978;2024-03-02T16:50:03;64648.78;;;-5.05;100.00
37132;BME280;23035;50.032;21.978;2024-03-02T16:55:11;64619.59;;;-5.23;100.00
37132;BME280;23035;50.032;21.978;2024-03-02T17:00:18;64629.97;;;-5.18;100.00
37132;BME280;23035;50.032;21.978;2024-03-02T17:05:23;64619.28;;;-5.31;100.00
37132;BME280;23035;50.032;21.978;2024-03-02T17:10:31;64601.91;;;-5.45;100.00
37132;BME280;23035;50.032;21.978;2024-03-02T17:15:40;64660.22;;;-4.86;100.00
37132;BME280;23035;50.032;21.978;2024-03-02T17:20:44;64641.06;;;-5.07;100.00
37132;BME280;23035;50.032;21.978;2024-03-02T17:25:48;64638.00;;;-5.08;100.00
37132;BME280;23035;50.032;21.978;2024-03-02T17:30:53;64624.44;;;-5.28;100.00
37132;BME280;23035;50.032;21.978;2024-03-02T17:35:58;64627.19;;;-5.23;100.00
37132;BME280;23035;50.032;21.978;2024-03-02T17:41:02;64652.28;;;-4.94;100.00
37132;BME280;23035;50.032;21.978;2024-03-02T17:46:12;64616.59;;;-5.33;100.00
37132;BME280;23035;50.032;21.978;2024-03-02T17:51:16;64665.28;;;-4.86;100.00
37132;BME280;23035;50.032;21.978;2024-03-02T17:56:20;64623.19;;;-5.22;100.00
37132;BME280;23035;50.032;21.978;2024-03-02T18:01:26;64675.59;;;-4.72;100.00
37132;BME280;23035;50.032;21.978;2024-03-02T18:06:35;64630.06;;;-5.15;100.00
37132;BME280;23035;50.032;21.978;2024-03-02T18:11:39;64604.97;;;-5.44;100.00
37132;BME280;23035;50.032;21.978;2024-03-02T18:16:45;64547.47;;;-5.97;100.00
37132;BME280;23035;50.032;21.978;2024-03-02T18:21:49;64690.06;;;-4.65;100.00
37132;BME280;23035;50.032;21.978;2024-03-02T18:26:54;64614.75;;;-5.30;100.00
37132;BME280;23035;50.032;21.978;2024-03-02T18:32:00;64609.22;;;-5.40;100.00
37132;BME280;23035;50.032;21.978;2024-03-02T18:37:06;64644.91;;;-5.01;100.00
37132;BME280;23035;50.032;21.978;2024-03-02T18:42:13;64651.00;;;-5.00;100.00
37132;BME280;23035;50.032;21.978;2024-03-02T18:47:18;64669.88;;;-4.75;100.00
37132;BME280;23035;50.032;21.978;2024-03-02T18:52:23;64652.19;;;-4.97;100.00
37132;BME280;23035;50.032;21.978;2024-03-02T18:57:27;64653.25;;;-4.96;100.00
37132;BME280;23035;50.032;21.978;2024-03-02T19:02:34;64666.78;;;-4.87;100.00
37132;BME280;23035;50.032;21.978;2024-03-02T19:07:38;64580.88;;;-5.63;100.00
37132;BME280;23035;50.032;21.978;2024-03-02T19:12:44;64533.06;;;-6.14;100.00
37132;BME280;23035;50.032;21.978;2024-03-02T19:17:56;64453.81;;;-6.90;100.00
37132;BME280;23035;50.032;21.978;2024-03-02T19:23:01;64460.69;;;-6.83;100.00
37132;BME280;23035;50.032;21.978;2024-03-02T19:28:05;64443.50;;;-6.95;100.00
37132;BME280;23035;50.032;21.978;2024-03-02T19:33:11;64555.28;;;-5.92;100.00
37132;BME280;23035;50.032;21.978;2024-03-02T19:38:17;64662.34;;;-4.84;100.00
37132;BME280;23035;50.032;21.978;2024-03-02T19:43:21;64539.13;;;-6.03;100.00
37132;BME280;23035;50.032;21.978;2024-03-02T19:48:27;64530.97;;;-6.16;100.00
37132;BME280;23035;50.032;21.978;2024-03-02T19:53:32;64584.47;;;-5.62;100.00
37132;BME280;23035;50.032;21.978;2024-03-02T19:58:36;64524.63;;;-6.22;100.00
37132;BME280;23035;50.032;21.978;2024-03-02T20:03:42;64536.91;;;-6.08;100.00
37132;BME280;23035;50.032;21.978;2024-03-02T20:08:46;64611.97;;;-5.35;100.00
37132;BME280;23035;50.032;21.978;2024-03-02T20:13:50;64684.34;;;-4.68;100.00
37132;BME280;23035;50.032;21.978;2024-03-02T20:18:56;64607.44;;;-5.35;100.00
37132;BME280;23035;50.032;21.978;2024-03-02T20:24:00;64642.00;;;-5.09;100.00
37132;BME280;23035;50.032;21.978;2024-03-02T20:29:04;64518.81;;;-6.27;100.00
37132;BME280;23035;50.032;21.978;2024-03-02T20:34:11;64481.41;;;-6.61;100.00
37132;BME280;23035;50.032;21.978;2024-03-02T20:39:17;64632.19;;;-5.13;100.00
37132;BME280;23035;50.032;21.978;2024-03-02T20:44:22;64627.44;;;-5.18;100.00
37132;BME280;23035;50.032;21.978;2024-03-02T20:49:30;64598.34;;;-5.46;100.00
37132;BME280;23035;50.032;21.978;2024-03-02T20:54:34;64628.25;;;-5.22;100.00
37132;BME280;23035;50.032;21.978;2024-03-02T20:59:39;64569.53;;;-5.79;100.00
37132;BME280;23035;50.032;21.978;2024-03-02T21:04:44;64598.84;;;-5.45;100.00
37132;BME280;23035;50.032;21.978;2024-03-02T21:09:49;64596.50;;;-5.53;100.00
37132;BME280;23035;50.032;21.978;2024-03-02T21:14:54;64545.13;;;-6.04;100.00
37132;BME280;23035;50.032;21.978;2024-03-02T21:19:59;64580.13;;;-5.68;100.00
37132;BME280;23035;50.032;21.978;2024-03-02T21:25:07;64594.41;;;-5.55;100.00
37132;BME280;23035;50.032;21.978;2024-03-02T21:30:15;64629.31;;;-5.21;100.00
37132;BME280;23035;50.032;21.978;2024-03-02T21:35:22;64629.00;;;-5.16;100.00
37132;BME280;23035;50.032;21.978;2024-03-02T21:40:26;64553.81;;;-5.91;100.00
37132;BME280;23035;50.032;21.978;2024-03-02T21:45:34;64596.50;;;-5.53;100.00
37132;BME280;23035;50.032;21.978;2024-03-02T21:50:40;64607.84;;;-5.37;100.00
37132;BME280;23035;50.032;21.978;2024-03-02T21:55:44;64499.66;;;-6.48;100.00
37132;BME280;23035;50.032;21.978;2024-03-02T22:00:48;64594.41;;;-5.55;100.00
37132;BME280;23035;50.032;21.978;2024-03-02T22:05:53;64617.91;;;-5.27;100.00
37132;BME280;23035;50.032;21.978;2024-03-02T22:10:57;64629.31;;;-5.21;100.00
37132;BME280;23035;50.032;21.978;2024-03-02T22:16:02;64620.00;;;-5.25;100.00
37132;BME280;23035;50.032;21.978;2024-03-02T22:21:10;64638.31;;;-5.12;100.00
37132;BME280;23035;50.032;21.978;2024-03-02T22:26:14;64575.59;;;-5.68;100.00
37132;BME280;23035;50.032;21.978;2024-03-02T22:31:20;64563.31;;;-5.82;100.00
37132;BME280;23035;50.032;21.978;2024-03-02T22:36:25;64584.47;;;-5.62;100.00
37132;BME280;23035;50.032;21.978;2024-03-02T22:41:31;64537.00;;;-6.05;100.00
37132;BME280;23035;50.032;21.978;2024-03-02T22:46:35;64535.31;;;-6.09;100.00
37132;BME280;23035;50.032;21.978;2024-03-02T22:51:40;64546.81;;;-6.00;100.00
37132;BME280;23035;50.032;21.978;2024-03-02T22:56:44;64566.88;;;-5.81;100.00
37132;BME280;23035;50.032;21.978;2024-03-02T23:01:49;64586.69;;;-5.57;100.00
37132;BME280;23035;50.032;21.978;2024-03-02T23:06:54;64604.56;;;-5.42;100.00
37132;BME280;23035;50.032;21.978;2024-03-02T23:11:58;64565.31;;;-5.83;100.00
37132;BME280;23035;50.032;21.978;2024-03-02T23:17:03;64599.28;;;-5.47;100.00
37132;BME280;23035;50.032;21.978;2024-03-02T23:22:09;64608.03;;;-5.44;100.00
37132;BME280;23035;50.032;21.978;2024-03-02T23:27:13;64614.50;;;-5.35;100.00
37132;BME280;23035;50.032;21.978;2024-03-02T23:32:18;64637.25;;;-5.13;100.00
37132;BME280;23035;50.032;21.978;2024-03-02T23:37:23;64604.44;;;-5.45;100.00
37132;BME280;23035;50.032;21.978;2024-03-02T23:42:27;64623.06;;;-5.25;100.00
37132;BME280;23035;50.032;21.978;2024-03-02T23:47:32;64633.75;;;-5.12;100.00
37132;BME280;23035;50.032;21.978;2024-03-02T23:52:37;64642.66;;;-5.06;100.00
37132;BME280;23035;50.032;21.978;2024-03-02T23:57:41;64598.09;;;-5.51;100.00
